createdAt,value
2023-04-15T00:00:30.368Z,186.87
2023-04-15T00:01:30.336Z,184.04
2023-04-15T00:02:30.479Z,184.51
2023-04-15T00:03:30.547Z,184.14
2023-04-15T00:04:30.518Z,186.65
2023-04-15T00:05:30.304Z,188.04
2023-04-15T00:06:30.306Z,187.09
2023-04-15T00:07:30.317Z,188.08
2023-04-15T00:08:30.360Z,189.56
2023-04-15T00:09:30.298Z,187.73
2023-04-15T00:10:30.278Z,184.47
2023-04-15T00:11:30.322Z,186.77
2023-04-15T00:12:30.295Z,187.60
2023-04-15T00:13:30.247Z,188.89
2023-04-15T00:14:30.631Z,190.68
2023-04-15T00:15:30.264Z,190.53
2023-04-15T00:16:30.263Z,188.06
2023-04-15T00:17:30.264Z,187.42
2023-04-15T00:18:30.248Z,189.86
2023-04-15T00:19:30.252Z,190.12
2023-04-15T00:20:30.192Z,189.68
2023-04-15T00:21:30.203Z,189.15
2023-04-15T00:22:30.170Z,191.12
2023-04-15T00:23:30.179Z,186.74
2023-04-15T00:24:30.182Z,183.74
2023-04-15T00:25:30.202Z,187.37
2023-04-15T00:26:30.161Z,183.05
2023-04-15T00:27:30.212Z,185.25
2023-04-15T00:28:30.150Z,190.22
2023-04-15T00:29:30.153Z,190.36
2023-04-15T00:30:30.285Z,186.99
2023-04-15T00:31:30.177Z,183.41
2023-04-15T00:32:30.166Z,187.02
2023-04-15T00:33:30.131Z,187.00
2023-04-15T00:34:30.150Z,187.49
2023-04-15T00:35:30.101Z,186.68
2023-04-15T00:36:30.109Z,186.92
2023-04-15T00:37:30.120Z,189.45
2023-04-15T00:38:30.125Z,190.32
2023-04-15T00:39:30.089Z,189.16
2023-04-15T00:40:30.091Z,188.25
2023-04-15T00:41:30.092Z,188.59
2023-04-15T00:42:30.043Z,188.82
2023-04-15T00:43:30.045Z,186.68
2023-04-15T00:44:30.005Z,187.57
2023-04-15T00:45:30.055Z,188.34
2023-04-15T00:46:30.043Z,192.33
2023-04-15T00:47:30.053Z,188.26
2023-04-15T00:48:30.063Z,186.85
2023-04-15T00:49:29.991Z,186.50
2023-04-15T00:50:30.049Z,188.82
2023-04-15T00:51:29.949Z,184.44
2023-04-15T00:52:29.956Z,186.91
2023-04-15T00:53:29.965Z,189.76
2023-04-15T00:54:29.921Z,189.62
2023-04-15T00:55:29.997Z,191.61
2023-04-15T00:56:29.941Z,189.44
2023-04-15T00:57:29.948Z,188.55
2023-04-15T00:58:29.959Z,188.64
2023-04-15T00:59:29.906Z,188.39
2023-04-15T01:00:30.030Z,191.33
2023-04-15T01:01:29.960Z,190.40
2023-04-15T01:02:30.041Z,191.39
2023-04-15T01:03:30.106Z,189.76
2023-04-15T01:04:30.009Z,194.13
2023-04-15T01:05:29.905Z,190.43
2023-04-15T01:06:29.855Z,189.92
2023-04-15T01:07:29.871Z,193.46
2023-04-15T01:08:29.871Z,191.92
2023-04-15T01:09:29.891Z,187.57
2023-04-15T01:10:29.837Z,187.82
2023-04-15T01:11:29.837Z,191.73
2023-04-15T01:12:29.836Z,191.89
2023-04-15T01:13:29.798Z,190.11
2023-04-15T01:14:29.834Z,190.18
2023-04-15T01:15:29.811Z,192.22
2023-04-15T01:16:29.882Z,190.57
2023-04-15T01:17:29.923Z,190.96
2023-04-15T01:18:29.837Z,187.17
2023-04-15T01:19:29.832Z,187.14
2023-04-15T01:20:29.901Z,186.80
2023-04-15T01:21:29.916Z,189.98
2023-04-15T01:22:29.883Z,186.60
2023-04-15T01:23:29.921Z,187.95
2023-04-15T01:24:29.921Z,190.14
2023-04-15T01:25:29.922Z,188.20
2023-04-15T01:26:29.945Z,186.15
2023-04-15T01:27:29.983Z,186.66
2023-04-15T01:28:29.950Z,185.67
2023-04-15T01:29:29.927Z,188.42
2023-04-15T01:30:30.023Z,189.02
2023-04-15T01:31:30.053Z,183.89
2023-04-15T01:32:30.078Z,186.17
2023-04-15T01:33:30.041Z,187.37
2023-04-15T01:34:30.040Z,189.61
2023-04-15T01:35:30.057Z,189.85
2023-04-15T01:36:30.064Z,188.50
2023-04-15T01:37:30.061Z,189.16
2023-04-15T01:38:30.069Z,191.47
2023-04-15T01:39:30.077Z,192.66
2023-04-15T01:40:30.080Z,191.64
2023-04-15T01:41:30.192Z,192.43
2023-04-15T01:42:30.105Z,193.00
2023-04-15T01:43:30.166Z,188.49
2023-04-15T01:44:30.138Z,190.54
2023-04-15T01:45:30.183Z,187.86
2023-04-15T01:46:30.186Z,187.92
2023-04-15T01:47:30.199Z,193.36
2023-04-15T01:48:30.206Z,192.70
2023-04-15T01:49:30.256Z,190.30
2023-04-15T01:50:30.215Z,190.35
2023-04-15T01:51:30.279Z,188.24
2023-04-15T01:52:30.234Z,186.79
2023-04-15T01:53:30.240Z,188.88
2023-04-15T01:54:30.280Z,185.06
2023-04-15T01:55:30.246Z,188.20
2023-04-15T01:56:30.299Z,190.36
2023-04-15T01:57:30.310Z,189.85
2023-04-15T01:58:30.305Z,191.52
2023-04-15T01:59:30.324Z,190.35
2023-04-15T02:00:30.327Z,191.40
2023-04-15T02:01:30.584Z,192.94
2023-04-15T02:02:30.454Z,191.34
2023-04-15T02:03:30.558Z,190.95
2023-04-15T02:04:30.390Z,189.02
2023-04-15T02:05:30.376Z,187.42
2023-04-15T02:06:30.468Z,190.28
2023-04-15T02:07:30.437Z,187.21
2023-04-15T02:08:30.500Z,183.56
2023-04-15T02:09:30.446Z,181.19
2023-04-15T02:10:30.504Z,186.13
2023-04-15T02:11:30.498Z,189.51
2023-04-15T02:12:30.511Z,188.51
2023-04-15T02:13:30.522Z,189.99
2023-04-15T02:14:30.580Z,191.17
2023-04-15T02:15:30.568Z,189.88
2023-04-15T02:16:30.665Z,189.70
2023-04-15T02:17:30.625Z,188.88
2023-04-15T02:18:30.657Z,193.06
2023-04-15T02:19:30.656Z,186.52
2023-04-15T02:20:30.622Z,189.85
2023-04-15T02:21:30.777Z,191.41
2023-04-15T02:22:30.692Z,192.59
2023-04-15T02:23:30.678Z,186.15
2023-04-15T02:24:30.704Z,190.27
2023-04-15T02:25:30.705Z,192.68
2023-04-15T02:26:30.730Z,193.83
2023-04-15T02:27:30.740Z,192.95
2023-04-15T02:28:30.762Z,189.21
2023-04-15T02:29:30.850Z,193.71
2023-04-15T02:30:30.797Z,197.68
2023-04-15T02:31:30.891Z,193.10
2023-04-15T02:32:30.882Z,196.96
2023-04-15T02:33:30.859Z,193.75
2023-04-15T02:34:30.888Z,189.56
2023-04-15T02:35:30.901Z,193.42
2023-04-15T02:36:30.994Z,189.71
2023-04-15T02:37:30.949Z,187.14
2023-04-15T02:38:30.963Z,187.37
2023-04-15T02:39:31.006Z,187.00
2023-04-15T02:40:31.009Z,189.31
2023-04-15T02:41:31.006Z,187.22
2023-04-15T02:42:31.020Z,192.78
2023-04-15T02:43:31.027Z,193.72
2023-04-15T02:44:31.065Z,196.31
2023-04-15T02:45:31.081Z,195.56
2023-04-15T02:46:31.122Z,195.01
2023-04-15T02:47:31.134Z,191.13
2023-04-15T02:48:31.166Z,188.01
2023-04-15T02:49:31.171Z,193.63
2023-04-15T02:50:31.175Z,192.98
2023-04-15T02:51:31.240Z,190.88
2023-04-15T02:52:31.228Z,195.93
2023-04-15T02:53:31.225Z,186.60
2023-04-15T02:54:31.297Z,185.79
2023-04-15T02:55:31.304Z,191.28
2023-04-15T02:56:31.325Z,194.01
2023-04-15T02:57:31.350Z,193.92
2023-04-15T02:58:31.395Z,188.12
2023-04-15T02:59:31.438Z,189.47
2023-04-15T03:00:31.412Z,188.57
2023-04-15T03:01:31.449Z,192.62
2023-04-15T03:02:31.530Z,195.16
2023-04-15T03:03:31.524Z,194.53
2023-04-15T03:04:31.512Z,190.08
2023-04-15T03:05:31.597Z,190.26
2023-04-15T03:06:31.586Z,187.39
2023-04-15T03:07:31.596Z,189.96
2023-04-15T03:08:31.663Z,183.71
2023-04-15T03:09:31.661Z,188.08
2023-04-15T03:10:31.679Z,189.65
2023-04-15T03:11:31.690Z,194.36
2023-04-15T03:12:31.733Z,192.96
2023-04-15T03:13:31.788Z,187.35
2023-04-15T03:14:31.785Z,190.85
2023-04-15T03:15:31.802Z,189.34
2023-04-15T03:16:31.798Z,194.12
2023-04-15T03:17:31.917Z,192.59
2023-04-15T03:18:31.838Z,189.57
2023-04-15T03:19:31.902Z,185.80
2023-04-15T03:20:31.942Z,186.33
2023-04-15T03:21:31.885Z,187.64
2023-04-15T03:22:31.924Z,190.00
2023-04-15T03:23:31.957Z,190.51
2023-04-15T03:24:31.976Z,195.14
2023-04-15T03:25:32.036Z,195.35
2023-04-15T03:26:32.037Z,191.36
2023-04-15T03:27:32.115Z,193.31
2023-04-15T03:28:32.094Z,189.73
2023-04-15T03:29:32.129Z,189.67
2023-04-15T03:30:32.124Z,190.81
2023-04-15T03:31:32.227Z,188.98
2023-04-15T03:32:32.180Z,188.55
2023-04-15T03:33:32.180Z,189.76
2023-04-15T03:34:32.226Z,193.57
2023-04-15T03:35:32.240Z,191.50
2023-04-15T03:36:32.312Z,195.50
2023-04-15T03:37:32.275Z,194.12
2023-04-15T03:38:32.312Z,192.31
2023-04-15T03:39:32.336Z,193.48
2023-04-15T03:40:32.360Z,192.59
2023-04-15T03:41:32.450Z,190.42
2023-04-15T03:42:32.418Z,184.92
2023-04-15T03:43:32.445Z,188.02
2023-04-15T03:44:32.511Z,193.81
2023-04-15T03:45:32.513Z,194.61
2023-04-15T03:46:32.569Z,191.57
2023-04-15T03:47:32.606Z,194.56
2023-04-15T03:48:32.588Z,193.47
2023-04-15T03:49:32.595Z,190.71
2023-04-15T03:50:32.650Z,187.58
2023-04-15T03:51:32.670Z,191.57
2023-04-15T03:52:32.690Z,190.70
2023-04-15T03:53:32.735Z,187.82
2023-04-15T03:54:32.733Z,186.76
2023-04-15T03:55:32.768Z,184.48
2023-04-15T03:56:32.779Z,183.56
2023-04-15T03:57:32.835Z,183.71
2023-04-15T03:58:32.872Z,185.06
2023-04-15T03:59:32.880Z,184.61
2023-04-15T04:00:32.899Z,183.61
2023-04-15T04:01:32.964Z,183.76
2023-04-15T04:02:33.048Z,180.44
2023-04-15T04:03:33.115Z,179.83
2023-04-15T04:04:33.150Z,176.98
2023-04-15T04:05:33.022Z,177.74
2023-04-15T04:06:33.012Z,179.94
2023-04-15T04:07:33.074Z,176.80
2023-04-15T04:08:33.110Z,179.00
2023-04-15T04:09:33.145Z,177.48
2023-04-15T04:10:33.159Z,181.83
2023-04-15T04:11:33.208Z,177.44
2023-04-15T04:12:33.206Z,175.01
2023-04-15T04:13:33.221Z,182.10
2023-04-15T04:14:33.223Z,177.73
2023-04-15T04:15:33.350Z,179.28
2023-04-15T04:16:33.336Z,177.21
2023-04-15T04:17:33.273Z,178.18
2023-04-15T04:18:33.380Z,184.82
2023-04-15T04:19:33.341Z,173.62
2023-04-15T04:20:33.368Z,176.68
2023-04-15T04:21:33.423Z,176.47
2023-04-15T04:22:33.474Z,167.82
2023-04-15T04:23:33.486Z,168.16
2023-04-15T04:24:33.538Z,169.64
2023-04-15T04:25:33.558Z,171.83
2023-04-15T04:26:33.555Z,172.96
2023-04-15T04:27:33.602Z,172.72
2023-04-15T04:28:33.611Z,169.04
2023-04-15T04:29:33.685Z,173.66
2023-04-15T04:30:33.706Z,175.18
2023-04-15T04:31:33.731Z,171.61
2023-04-15T04:32:33.759Z,172.16
2023-04-15T04:33:33.835Z,174.14
2023-04-15T04:34:33.773Z,173.26
2023-04-15T04:35:33.826Z,170.41
2023-04-15T04:36:33.840Z,176.69
2023-04-15T04:37:33.882Z,173.08
2023-04-15T04:38:33.884Z,167.05
2023-04-15T04:39:33.976Z,168.90
2023-04-15T04:40:33.960Z,170.74
2023-04-15T04:41:33.967Z,174.21
2023-04-15T04:42:34.002Z,173.12
2023-04-15T04:43:34.716Z,172.99
2023-04-15T04:44:34.104Z,175.32
2023-04-15T04:45:34.141Z,170.18
2023-04-15T04:46:34.132Z,173.35
2023-04-15T04:47:34.173Z,171.99
2023-04-15T04:48:34.224Z,173.29
2023-04-15T04:49:34.224Z,169.55
2023-04-15T04:50:34.237Z,171.32
2023-04-15T04:51:34.287Z,170.56
2023-04-15T04:52:34.350Z,169.84
2023-04-15T04:53:34.355Z,169.57
2023-04-15T04:54:34.369Z,166.22
2023-04-15T04:55:34.410Z,165.04
2023-04-15T04:56:34.476Z,164.75
2023-04-15T04:57:34.483Z,164.30
2023-04-15T04:58:34.488Z,168.09
2023-04-15T04:59:34.489Z,168.42
2023-04-15T05:00:34.547Z,165.74
2023-04-15T05:01:34.669Z,161.77
2023-04-15T05:02:34.676Z,163.12
2023-04-15T05:03:34.706Z,163.85
2023-04-15T05:04:34.672Z,162.61
2023-04-15T05:05:34.742Z,165.89
2023-04-15T05:06:34.752Z,161.33
2023-04-15T05:07:34.762Z,160.61
2023-04-15T05:08:34.864Z,159.31
2023-04-15T05:09:34.821Z,161.28
2023-04-15T05:10:34.871Z,163.22
2023-04-15T05:11:34.854Z,165.68
2023-04-15T05:12:34.894Z,160.65
2023-04-15T05:13:34.905Z,158.36
2023-04-15T05:14:34.962Z,162.15
2023-04-15T05:15:35.123Z,161.14
2023-04-15T05:16:35.022Z,162.17
2023-04-15T05:17:35.056Z,161.50
2023-04-15T05:18:35.070Z,159.11
2023-04-15T05:19:35.149Z,159.45
2023-04-15T05:20:35.125Z,161.97
2023-04-15T05:21:35.900Z,160.84
2023-04-15T05:22:35.167Z,163.54
2023-04-15T05:23:35.283Z,156.11
2023-04-15T05:24:35.275Z,159.15
2023-04-15T05:25:35.279Z,159.98
2023-04-15T05:26:35.343Z,158.66
2023-04-15T05:27:35.345Z,157.07
2023-04-15T05:28:35.414Z,151.03
2023-04-15T05:29:35.415Z,155.23
2023-04-15T05:30:35.493Z,152.51
2023-04-15T05:31:35.807Z,152.87
2023-04-15T05:32:35.534Z,154.46
2023-04-15T05:33:35.513Z,153.73
2023-04-15T05:34:35.558Z,145.85
2023-04-15T05:35:35.587Z,153.08
2023-04-15T05:36:35.667Z,154.74
2023-04-15T05:37:35.633Z,155.51
2023-04-15T05:38:35.683Z,156.28
2023-04-15T05:39:35.735Z,155.03
2023-04-15T05:40:35.748Z,155.11
2023-04-15T05:41:35.774Z,156.53
2023-04-15T05:42:35.824Z,153.43
2023-04-15T05:43:35.875Z,156.84
2023-04-15T05:44:35.934Z,150.15
2023-04-15T05:45:35.931Z,151.30
2023-04-15T05:46:36.027Z,152.15
2023-04-15T05:47:36.032Z,145.40
2023-04-15T05:48:35.985Z,148.67
2023-04-15T05:49:36.038Z,147.06
2023-04-15T05:50:36.033Z,151.44
2023-04-15T05:51:36.091Z,152.39
2023-04-15T05:52:36.139Z,150.79
2023-04-15T05:53:36.141Z,151.33
2023-04-15T05:54:36.201Z,150.62
2023-04-15T05:55:36.264Z,145.23
2023-04-15T05:56:36.225Z,148.57
2023-04-15T05:57:36.263Z,149.20
2023-04-15T05:58:36.270Z,146.66
2023-04-15T05:59:36.311Z,152.50
2023-04-15T06:00:36.346Z,150.83
2023-04-15T06:01:36.367Z,141.12
2023-04-15T06:02:36.471Z,147.65
2023-04-15T06:03:36.590Z,147.05
2023-04-15T06:04:36.601Z,150.34
2023-04-15T06:05:36.476Z,148.82
2023-04-15T06:06:36.525Z,148.24
2023-04-15T06:07:36.546Z,148.53
2023-04-15T06:08:36.620Z,144.89
2023-04-15T06:09:36.618Z,146.85
2023-04-15T06:10:36.875Z,143.32
2023-04-15T06:11:36.679Z,146.63
2023-04-15T06:12:36.754Z,142.06
2023-04-15T06:13:36.737Z,140.43
2023-04-15T06:14:36.745Z,143.96
2023-04-15T06:15:36.809Z,150.59
2023-04-15T06:16:36.950Z,145.62
2023-04-15T06:17:36.871Z,146.89
2023-04-15T06:18:36.879Z,150.85
2023-04-15T06:19:36.949Z,148.90
2023-04-15T06:20:36.933Z,151.34
2023-04-15T06:21:36.924Z,147.85
2023-04-15T06:22:37.009Z,149.74
2023-04-15T06:23:37.010Z,144.31
2023-04-15T06:24:37.032Z,144.20
2023-04-15T06:25:37.088Z,147.38
2023-04-15T06:26:37.030Z,146.79
2023-04-15T06:27:37.080Z,149.51
2023-04-15T06:28:37.097Z,147.58
2023-04-15T06:29:37.130Z,146.53
2023-04-15T06:30:37.185Z,145.51
2023-04-15T06:31:37.249Z,146.69
2023-04-15T06:32:37.260Z,146.93
2023-04-15T06:33:37.210Z,145.34
2023-04-15T06:34:37.293Z,146.42
2023-04-15T06:35:37.241Z,147.79
2023-04-15T06:36:37.304Z,147.85
2023-04-15T06:37:37.339Z,147.45
2023-04-15T06:38:37.312Z,146.73
2023-04-15T06:39:37.351Z,148.92
2023-04-15T06:40:37.365Z,145.53
2023-04-15T06:41:37.415Z,145.75
2023-04-15T06:42:37.485Z,142.60
2023-04-15T06:43:37.457Z,145.36
2023-04-15T06:44:37.506Z,143.75
2023-04-15T06:45:37.520Z,145.02
2023-04-15T06:46:37.520Z,145.01
2023-04-15T06:47:37.575Z,145.07
2023-04-15T06:48:37.523Z,147.27
2023-04-15T06:49:37.594Z,143.77
2023-04-15T06:50:37.630Z,144.61
2023-04-15T06:51:37.609Z,143.24
2023-04-15T06:52:37.653Z,144.70
2023-04-15T06:53:37.653Z,143.13
2023-04-15T06:54:37.676Z,143.65
2023-04-15T06:55:37.687Z,144.15
2023-04-15T06:56:37.678Z,144.85
2023-04-15T06:57:37.687Z,144.78
2023-04-15T06:58:37.712Z,144.46
2023-04-15T06:59:37.722Z,145.00
2023-04-15T07:00:37.729Z,145.26
2023-04-15T07:01:37.734Z,143.44
2023-04-15T07:02:37.932Z,146.85
2023-04-15T07:03:37.811Z,146.25
2023-04-15T07:04:37.835Z,141.88
2023-04-15T07:05:38.759Z,140.36
2023-04-15T07:06:37.850Z,144.05
2023-04-15T07:07:37.874Z,146.19
2023-04-15T07:08:37.854Z,140.76
2023-04-15T07:09:37.868Z,140.12
2023-04-15T07:10:37.884Z,143.31
2023-04-15T07:11:37.887Z,139.80
2023-04-15T07:12:37.907Z,141.84
2023-04-15T07:13:37.924Z,140.39
2023-04-15T07:14:37.974Z,142.53
2023-04-15T07:15:37.976Z,138.89
2023-04-15T07:16:38.040Z,140.88
2023-04-15T07:17:37.998Z,143.06
2023-04-15T07:18:38.036Z,135.94
2023-04-15T07:19:38.063Z,142.08
2023-04-15T07:20:38.046Z,138.45
2023-04-15T07:21:39.994Z,141.94
2023-04-15T07:22:38.083Z,142.43
2023-04-15T07:23:38.061Z,142.19
2023-04-15T07:24:38.080Z,140.80
2023-04-15T07:25:38.048Z,139.59
2023-04-15T07:26:38.059Z,137.34
2023-04-15T07:27:38.017Z,138.75
2023-04-15T07:28:38.065Z,140.69
2023-04-15T07:29:38.016Z,138.02
2023-04-15T07:30:38.065Z,136.91
2023-04-15T07:31:38.096Z,137.20
2023-04-15T07:32:38.035Z,135.47
2023-04-15T07:33:37.962Z,135.67
2023-04-15T07:34:38.006Z,133.81
2023-04-15T07:35:37.958Z,131.96
2023-04-15T07:36:37.952Z,128.87
2023-04-15T07:37:37.953Z,131.39
2023-04-15T07:38:37.977Z,130.39
2023-04-15T07:39:37.968Z,131.89
2023-04-15T07:40:37.946Z,127.03
2023-04-15T07:41:37.908Z,129.95
2023-04-15T07:42:40.038Z,126.92
2023-04-15T07:43:37.905Z,127.15
2023-04-15T07:44:37.900Z,126.92
2023-04-15T07:45:37.927Z,127.07
2023-04-15T07:46:37.978Z,128.64
2023-04-15T07:47:37.912Z,124.65
2023-04-15T07:48:37.968Z,130.31
2023-04-15T07:49:37.900Z,128.10
2023-04-15T07:50:37.918Z,124.04
2023-04-15T07:51:37.864Z,124.87
2023-04-15T07:52:37.871Z,120.59
2023-04-15T07:53:37.830Z,116.85
2023-04-15T07:54:37.841Z,121.78
2023-04-15T07:55:37.796Z,121.11
2023-04-15T07:56:37.859Z,115.29
2023-04-15T07:57:37.798Z,119.52
2023-04-15T07:58:37.788Z,121.65
2023-04-15T07:59:37.796Z,117.90
2023-04-15T08:00:37.799Z,120.47
2023-04-15T08:01:37.790Z,124.61
2023-04-15T08:02:40.194Z,119.90
2023-04-15T08:03:37.923Z,120.10
2023-04-15T08:04:38.042Z,120.79
2023-04-15T08:05:37.821Z,121.77
2023-04-15T08:06:37.748Z,124.10
2023-04-15T08:07:37.760Z,126.61
2023-04-15T08:08:37.736Z,125.50
2023-04-15T08:09:37.723Z,124.62
2023-04-15T08:10:37.747Z,124.97
2023-04-15T08:11:37.701Z,126.76
2023-04-15T08:12:37.694Z,131.28
2023-04-15T08:13:37.716Z,131.86
2023-04-15T08:14:37.718Z,125.63
2023-04-15T08:15:37.670Z,126.79
2023-04-15T08:16:37.732Z,130.41
2023-04-15T08:17:37.713Z,130.74
2023-04-15T08:18:37.675Z,129.41
2023-04-15T08:19:37.638Z,129.06
2023-04-15T08:20:37.637Z,130.31
2023-04-15T08:21:37.645Z,130.04
2023-04-15T08:22:37.615Z,130.68
2023-04-15T08:23:37.617Z,130.96
2023-04-15T08:24:37.633Z,132.81
2023-04-15T08:25:37.590Z,132.83
2023-04-15T08:26:37.568Z,134.10
2023-04-15T08:27:37.587Z,135.21
2023-04-15T08:28:37.586Z,134.97
2023-04-15T08:29:37.582Z,138.43
2023-04-15T08:30:37.568Z,132.44
2023-04-15T08:31:37.602Z,134.24
2023-04-15T08:32:37.571Z,135.70
2023-04-15T08:33:37.530Z,131.15
2023-04-15T08:34:37.529Z,132.59
2023-04-15T08:35:37.552Z,136.92
2023-04-15T08:36:37.609Z,134.08
2023-04-15T08:37:37.660Z,132.55
2023-04-15T08:38:37.686Z,131.05
2023-04-15T08:39:37.764Z,132.43
2023-04-15T08:40:37.836Z,135.62
2023-04-15T08:41:37.839Z,133.17
2023-04-15T08:42:37.873Z,135.61
2023-04-15T08:43:37.948Z,134.37
2023-04-15T08:44:37.964Z,135.68
2023-04-15T08:45:38.013Z,133.05
2023-04-15T08:46:38.056Z,134.67
2023-04-15T08:47:38.159Z,134.25
2023-04-15T08:48:38.145Z,136.24
2023-04-15T08:49:38.190Z,134.65
2023-04-15T08:50:38.228Z,136.39
2023-04-15T08:51:38.313Z,132.79
2023-04-15T08:52:38.288Z,139.53
2023-04-15T08:53:38.366Z,137.71
2023-04-15T08:54:38.435Z,138.63
2023-04-15T08:55:38.436Z,138.96
2023-04-15T08:56:38.534Z,138.23
2023-04-15T08:57:38.594Z,138.65
2023-04-15T08:58:38.582Z,138.46
2023-04-15T08:59:38.642Z,138.51
2023-04-15T09:00:38.657Z,140.27
2023-04-15T09:01:38.754Z,140.40
2023-04-15T09:02:38.915Z,138.84
2023-04-15T09:03:38.891Z,139.71
2023-04-15T09:04:38.817Z,140.70
2023-04-15T09:05:38.889Z,139.40
2023-04-15T09:06:38.891Z,142.73
2023-04-15T09:07:38.959Z,138.45
2023-04-15T09:08:39.007Z,137.98
2023-04-15T09:09:39.033Z,139.66
2023-04-15T09:10:39.064Z,140.45
2023-04-15T09:11:39.117Z,140.01
2023-04-15T09:12:39.102Z,139.54
2023-04-15T09:13:39.147Z,136.57
2023-04-15T09:14:39.146Z,134.39
2023-04-15T09:15:39.219Z,138.29
2023-04-15T09:16:39.249Z,138.67
2023-04-15T09:17:39.266Z,133.50
2023-04-15T09:18:39.298Z,137.79
2023-04-15T09:19:39.334Z,134.51
2023-04-15T09:20:39.350Z,135.14
2023-04-15T09:21:39.395Z,137.84
2023-04-15T09:22:39.418Z,137.94
2023-04-15T09:23:39.471Z,138.16
2023-04-15T09:24:39.482Z,137.90
2023-04-15T09:25:39.503Z,135.11
2023-04-15T09:26:39.536Z,135.07
2023-04-15T09:27:39.540Z,138.51
2023-04-15T09:28:39.550Z,138.92
2023-04-15T09:29:39.597Z,136.63
2023-04-15T09:30:39.644Z,133.45
2023-04-15T09:31:39.606Z,136.96
2023-04-15T09:32:39.690Z,136.68
2023-04-15T09:33:39.672Z,137.72
2023-04-15T09:34:39.698Z,137.55
2023-04-15T09:35:39.748Z,138.16
2023-04-15T09:36:39.752Z,137.48
2023-04-15T09:37:39.741Z,136.86
2023-04-15T09:38:39.748Z,136.29
2023-04-15T09:39:39.794Z,137.29
2023-04-15T09:40:39.763Z,135.66
2023-04-15T09:41:39.822Z,140.62
2023-04-15T09:42:39.813Z,136.42
2023-04-15T09:43:39.857Z,138.18
2023-04-15T09:44:39.829Z,138.02
2023-04-15T09:45:39.842Z,137.25
2023-04-15T09:46:39.880Z,137.73
2023-04-15T09:47:39.904Z,136.94
2023-04-15T09:48:39.871Z,138.53
2023-04-15T09:49:39.969Z,137.58
2023-04-15T09:50:39.909Z,133.33
2023-04-15T09:51:39.937Z,135.55
2023-04-15T09:52:39.964Z,139.45
2023-04-15T09:53:39.917Z,141.64
2023-04-15T09:54:39.921Z,139.65
2023-04-15T09:55:39.973Z,134.22
2023-04-15T09:56:39.991Z,134.46
2023-04-15T09:57:40.000Z,136.66
2023-04-15T09:58:39.988Z,134.08
2023-04-15T09:59:40.004Z,136.84
2023-04-15T10:00:40.013Z,131.58
2023-04-15T10:01:40.065Z,132.78
2023-04-15T10:02:40.104Z,132.42
2023-04-15T10:03:40.069Z,131.50
2023-04-15T10:04:40.103Z,132.99
2023-04-15T10:05:40.078Z,134.59
2023-04-15T10:06:40.045Z,133.44
2023-04-15T10:07:40.109Z,130.44
2023-04-15T10:08:40.065Z,135.10
2023-04-15T10:09:40.084Z,133.73
2023-04-15T10:10:40.078Z,132.29
2023-04-15T10:11:40.093Z,131.62
2023-04-15T10:12:40.088Z,129.62
2023-04-15T10:13:40.129Z,132.52
2023-04-15T10:14:40.103Z,132.93
2023-04-15T10:15:40.188Z,133.83
2023-04-15T10:16:40.284Z,134.26
2023-04-15T10:17:40.140Z,130.75
2023-04-15T10:18:40.142Z,131.72
2023-04-15T10:19:40.145Z,133.13
2023-04-15T10:20:40.156Z,133.23
2023-04-15T10:21:40.120Z,135.70
2023-04-15T10:22:40.150Z,131.21
2023-04-15T10:23:40.167Z,131.33
2023-04-15T10:24:40.132Z,131.07
2023-04-15T10:25:40.182Z,130.06
2023-04-15T10:26:40.238Z,134.12
2023-04-15T10:27:40.152Z,130.16
2023-04-15T10:28:40.130Z,132.14
2023-04-15T10:29:40.156Z,130.23
2023-04-15T10:30:40.148Z,129.73
2023-04-15T10:31:40.181Z,129.64
2023-04-15T10:32:40.204Z,133.04
2023-04-15T10:33:40.128Z,129.44
2023-04-15T10:34:40.138Z,134.58
2023-04-15T10:35:40.177Z,129.84
2023-04-15T10:36:40.177Z,132.81
2023-04-15T10:37:40.156Z,131.01
2023-04-15T10:38:40.168Z,130.79
2023-04-15T10:39:40.154Z,130.69
2023-04-15T10:40:40.125Z,132.73
2023-04-15T10:41:40.161Z,131.39
2023-04-15T10:42:40.116Z,131.46
2023-04-15T10:43:40.165Z,131.99
2023-04-15T10:44:40.148Z,132.46
2023-04-15T10:45:40.111Z,130.15
2023-04-15T10:46:40.209Z,130.62
2023-04-15T10:47:40.206Z,129.74
2023-04-15T10:48:40.133Z,128.61
2023-04-15T10:49:40.098Z,132.41
2023-04-15T10:50:40.116Z,129.18
2023-04-15T10:51:40.118Z,128.00
2023-04-15T10:52:40.132Z,132.09
2023-04-15T10:53:40.133Z,128.47
2023-04-15T10:54:40.133Z,129.13
2023-04-15T10:55:40.134Z,131.57
2023-04-15T10:56:40.113Z,130.51
2023-04-15T10:57:40.120Z,130.75
2023-04-15T10:58:40.197Z,130.47
2023-04-15T10:59:40.153Z,128.50
2023-04-15T11:00:40.168Z,128.54
2023-04-15T11:01:40.237Z,130.69
2023-04-15T11:02:40.369Z,129.02
2023-04-15T11:03:40.346Z,131.55
2023-04-15T11:04:41.844Z,130.98
2023-04-15T11:05:40.123Z,131.80
2023-04-15T11:06:40.142Z,133.52
2023-04-15T11:07:40.107Z,129.92
2023-04-15T11:08:40.091Z,129.30
2023-04-15T11:09:40.072Z,131.55
2023-04-15T11:10:40.082Z,132.29
2023-04-15T11:11:40.101Z,131.76
2023-04-15T11:12:40.051Z,131.57
2023-04-15T11:13:40.068Z,131.08
2023-04-15T11:14:40.055Z,132.16
2023-04-15T11:15:40.048Z,130.71
2023-04-15T11:16:40.117Z,131.96
2023-04-15T11:17:40.032Z,130.37
2023-04-15T11:18:40.019Z,131.18
2023-04-15T11:19:39.981Z,130.15
2023-04-15T11:20:40.085Z,127.40
2023-04-15T11:21:40.063Z,132.15
2023-04-15T11:22:39.977Z,127.55
2023-04-15T11:23:40.090Z,130.24
2023-04-15T11:24:39.995Z,132.90
2023-04-15T11:25:40.013Z,130.29
2023-04-15T11:26:39.969Z,129.60
2023-04-15T11:27:39.928Z,132.18
2023-04-15T11:28:39.930Z,130.83
2023-04-15T11:29:40.008Z,131.11
2023-04-15T11:30:39.943Z,130.73
2023-04-15T11:31:40.004Z,132.31
2023-04-15T11:32:39.974Z,133.38
2023-04-15T11:33:39.925Z,132.12
2023-04-15T11:34:39.914Z,131.67
2023-04-15T11:35:39.902Z,132.09
2023-04-15T11:36:40.400Z,132.36
2023-04-15T11:37:39.881Z,133.74
2023-04-15T11:38:39.882Z,131.40
2023-04-15T11:39:39.863Z,133.94
2023-04-15T11:40:39.856Z,132.09
2023-04-15T11:41:39.893Z,134.13
2023-04-15T11:42:49.677Z,131.39
2023-04-15T11:43:40.844Z,131.58
2023-04-15T11:44:39.844Z,131.93
2023-04-15T11:45:39.898Z,131.33
2023-04-15T11:46:39.835Z,131.58
2023-04-15T11:47:39.827Z,134.43
2023-04-15T11:48:39.826Z,131.97
2023-04-15T11:49:39.823Z,131.25
2023-04-15T11:50:39.799Z,134.08
2023-04-15T11:51:39.810Z,132.06
2023-04-15T11:52:39.842Z,132.95
2023-04-15T11:53:39.900Z,132.08
2023-04-15T11:54:39.970Z,131.65
2023-04-15T11:55:40.018Z,132.41
2023-04-15T11:56:40.087Z,133.12
2023-04-15T11:57:40.089Z,135.77
2023-04-15T11:58:40.201Z,133.99
2023-04-15T11:59:45.207Z,132.54
2023-04-15T12:00:41.161Z,132.66
2023-04-15T12:01:40.147Z,132.64
2023-04-15T12:02:40.264Z,133.00
2023-04-15T12:03:40.424Z,132.39
2023-04-15T12:04:40.321Z,134.87
2023-04-15T12:05:40.161Z,131.09
2023-04-15T12:06:40.149Z,130.63
2023-04-15T12:07:40.126Z,129.59
2023-04-15T12:08:40.123Z,129.47
2023-04-15T12:09:40.136Z,131.38
2023-04-15T12:10:40.124Z,129.76
2023-04-15T12:11:40.132Z,128.81
2023-04-15T12:12:40.145Z,132.19
2023-04-15T12:13:40.096Z,128.54
2023-04-15T12:14:40.152Z,131.90
2023-04-15T12:15:40.164Z,129.00
2023-04-15T12:16:49.247Z,131.22
2023-04-15T12:17:50.875Z,131.32
2023-04-15T12:18:41.144Z,131.50
2023-04-15T12:19:40.200Z,132.05
2023-04-15T12:20:40.136Z,131.80
2023-04-15T12:21:40.136Z,131.67
2023-04-15T12:22:40.204Z,131.02
2023-04-15T12:23:40.159Z,128.21
2023-04-15T12:24:40.097Z,130.18
2023-04-15T12:25:40.120Z,128.34
2023-04-15T12:26:40.116Z,131.28
2023-04-15T12:27:40.126Z,130.19
2023-04-15T12:28:40.104Z,130.18